Terminal Aerodrome Forecast
Issued by NWS

Current Version | Previous Version | Text Only | Print | Product List | Glossary Off
Versions: 1 2 3 4 5 6 7 8 9 10 11 12 13 14 15 16 17 18 19

000
FTUS41 KILN 220500
TAFLUK
TAF
KLUK 220536Z 2206/2306 27010KT 5SM -SHRA BKN040 OVC080
     FM220800 33010KT 5SM -SHRA SCT025 OVC040
     FM221200 28012G20KT P6SM SCT025 BKN035
     FM221500 29015G25KT P6SM BKN040
     FM230000 28010KT P6SM SCT050
     FM230300 25006KT P6SM FEW050=

USA.gov is the U.S. government's official web portal to all federal, state and local government web resources and services.